Jerez de la Frontera, Spain

1:44 PM CET on February 09, 2016 (GMT +0100)
Jerez | | Change Station
CLOSE
Current Station
Airport
Location: Jerez de la Frontera,
Elevation: 92 ft
Nearby Weather Stations

Elev 92 ft 36.75 °N, 6.06 °W | Updated 14 minutes ago

Mostly Cloudy
Mostly Cloudy
66 °F
Feels Like 66 °F
N
17
Wind Variable Wind from SW

Today
High -- | Low -- °F
--% Chance of Precip.
Yesterday
High -- | Low -- °F
Precip. -- in
Pressure 30.39 in
Visibility 6.2 miles
Clouds Few 2700 ft
Mostly Cloudy 5500 ft
Dew Point 54 °F
Humidity 64%
Rainfall 0.00 in
Snow Depth Not available.
8:19 AM 6:57 PM
New Moon, 1% visible
METAR LEJR 091230Z 22015KT 9999 FEW027 BKN055 19/12 Q1029
Pressure 30.39 in
Visibility 6.2 miles
Clouds Few 2700 ft
Mostly Cloudy 5500 ft
Dew Point 54 °F
Humidity 64%
Rainfall 0.00 in
Snow Depth Not available.
8:19 AM 6:57 PM
New Moon, 1% visible
METAR LEJR 091230Z 22015KT 9999 FEW027 BKN055 19/12 Q1029

10-Day Weather Forecast

Almanac

Astronomy

Feb. 09, 2016 Rise Set
Actual Time
Civil Twilight
Nautical Twilight
Astronomical Twilight
Moon
Length of Visible Light
Length of Day
Tomorrow will be .
, % of the Moon is Illuminated

Today's Extremes

Country Highs Country Lows

Community

WunderPhotos

Upload Photos

1,891,589 photos uploaded!

WunderBlog® & News

Nearby

Air Quality

  Air Quality AQ Index Pollutant
Not available.

Snow Depth

Station Depth Elevation

Earthquake Activity

City Distance Mag. Time & Date
Minimum magnitude displayed is 2.5.

Coastal Water Temperatures

Place Temperature

Stations

Nearby Weather Stations

Station Location Temp. Windchill Dew Point Humidity Wind Precip. Elev Updated Type